KNTD/NTD METAR and TAF weather

Enter ICAO airport designator
Station Type Date Time Source
KNTD METAR 2021/07/28 19:52 UTC NOAA

KNTD 281952Z 27010KT 10SM FEW006 FEW050 SCT250 22/15 A3004 RMK AO2 SLP173 T02170150 VISNO N $


Station Type Date Time Source
KNTD Decoded METAR 2021/07/28 19:52 UTC NOAA

NAWCWPNS POINT MUGU, CA, CA, United States (KNTD) 34-07N 119-07W 2M
Jul 28, 2021 - 03:52 PM EDT / 2021.07.28 1952 UTC
Wind: from the W (270 degrees) at 12 MPH (10 KT):0
Visibility: 10 mile(s):0
Sky conditions: partly cloudy
Temperature: 71.1 F (21.7 C)
Dew Point: 59.0 F (15.0 C)
Relative Humidity: 65%
Pressure (altimeter): 30.04 in. Hg (1017 hPa)
ob: KNTD 281952Z 27010KT 10SM FEW006 FEW050 SCT250 22/15 A3004 RMK AO2 SLP173 T02170150 VISNO N
cycle: 20

Station Type Date Time Source
KNTD TAF 2021/07/28 15:57 UTC NOAA

TAF KNTD 2815/2915 VRB05KT 9999 OVC005 QNH2998INS
TEMPO 2816/2819 6000 HZ SCT005 BKN010
BECMG 2817/1819 27011KT 9999 FEW015 SCT250 QNH2993INS
FM290300 VRB05KT 9999 FEW009 SCT015 QNH2992INS
BECMG 2905/2907 VRB05KT 9999 SCT007 OVC012 QNH2990INS
TEMPO 2909/2915 OVC007 T23/2822Z T16/2913Z FS30016

Example: see airport list